Time;durP1;ratioP1;P1;durP2;ratioP2;P2;SDS_P1;SDS_P2;PMS_P1;PMS_P2;Temp;Humidity;BMP_temperature;BMP_pressure;BME280_temperature;BME280_humidity;BME280_pressure;Samples;Min_cycle;Max_cycle;Signal;HPM_P1;HPM_P2
2021/12/20 00:00:30;;;;;;;14.83;9.17;;;;;;;;;;5081285;28;20303;-78
2021/12/20 00:02:58;;;;;;;13.37;8.93;;;;;;;;;;5087468;28;20278;-78
2021/12/20 00:05:26;;;;;;;14.97;8.97;;;;;;;;;;5084422;28;20299;-78
2021/12/20 00:07:54;;;;;;;14.83;8.93;;;;;;;;;;5078343;28;20285;-78
2021/12/20 00:10:21;;;;;;;12.90;8.70;;;;;;;;;;5084261;28;20229;-78
2021/12/20 00:12:50;;;;;;;14.63;8.40;;;;;;;;;;5084398;28;20445;-78
2021/12/20 00:15:17;;;;;;;14.50;8.87;;;;;;;;;;5081616;28;20232;-78
2021/12/20 00:17:45;;;;;;;13.73;8.60;;;;;;;;;;5071018;28;20204;-78
2021/12/20 00:20:13;;;;;;;13.67;8.83;;;;;;;;;;5075389;28;20312;-78
2021/12/20 00:22:40;;;;;;;13.23;8.67;;;;;;;;;;5077832;28;20240;-78
2021/12/20 00:25:08;;;;;;;14.23;8.90;;;;;;;;;;5075313;28;20232;-78
2021/12/20 00:27:36;;;;;;;13.80;8.43;;;;;;;;;;5079035;28;20249;-78
2021/12/20 00:30:05;;;;;;;13.33;8.03;;;;;;;;;;5079859;28;20320;-78
2021/12/20 00:32:32;;;;;;;12.80;8.13;;;;;;;;;;5079734;28;20261;-78
2021/12/20 00:35:00;;;;;;;11.20;7.77;;;;;;;;;;5088175;28;20239;-78
2021/12/20 00:40:22;;;;;;;12.00;7.83;;;;;;;;;;5054105;28;20246;-78
2021/12/20 00:42:49;;;;;;;12.93;8.03;;;;;;;;;;5080728;28;20288;-78
2021/12/20 00:45:18;;;;;;;10.60;7.30;;;;;;;;;;5072302;28;20280;-78
2021/12/20 00:47:45;;;;;;;11.07;7.70;;;;;;;;;;5084057;28;20236;-78
2021/12/20 00:50:13;;;;;;;11.77;8.03;;;;;;;;;;5071406;28;20257;-78
2021/12/20 00:52:42;;;;;;;12.70;7.87;;;;;;;;;;5070745;28;20702;-78
2021/12/20 00:55:10;;;;;;;13.57;8.17;;;;;;;;;;5071572;28;20233;-78
2021/12/20 00:57:37;;;;;;;12.63;7.97;;;;;;;;;;5071826;28;20201;-78
2021/12/20 01:00:06;;;;;;;12.87;8.07;;;;;;;;;;5087990;28;20223;-78
2021/12/20 01:02:34;;;;;;;11.57;8.00;;;;;;;;;;5081012;28;20229;-78
2021/12/20 01:05:02;;;;;;;11.23;7.90;;;;;;;;;;5082296;28;20284;-78
2021/12/20 01:07:30;;;;;;;13.43;7.60;;;;;;;;;;5090893;28;20211;-79
2021/12/20 01:10:02;;;;;;;11.80;7.73;;;;;;;;;;5092481;28;20285;-78
2021/12/20 01:12:34;;;;;;;11.37;7.73;;;;;;;;;;5091712;28;20200;-78
2021/12/20 01:15:02;;;;;;;12.67;8.67;;;;;;;;;;5092019;28;20197;-78
2021/12/20 01:17:30;;;;;;;11.13;7.30;;;;;;;;;;5074592;28;20209;-78
2021/12/20 01:19:58;;;;;;;12.17;7.40;;;;;;;;;;5081894;28;20635;-78
2021/12/20 01:22:26;;;;;;;10.93;7.67;;;;;;;;;;5084911;28;20282;-78
2021/12/20 01:24:53;;;;;;;10.73;6.83;;;;;;;;;;5071190;28;20233;-78
2021/12/20 01:27:20;;;;;;;10.57;7.17;;;;;;;;;;5071659;28;20233;-79
2021/12/20 01:29:47;;;;;;;10.90;7.50;;;;;;;;;;5073465;28;20309;-78
2021/12/20 01:32:14;;;;;;;11.67;7.83;;;;;;;;;;5071500;28;20232;-79
2021/12/20 01:34:41;;;;;;;11.80;8.07;;;;;;;;;;5071136;28;20288;-78
2021/12/20 01:37:11;;;;;;;11.00;7.57;;;;;;;;;;5071409;28;20291;-78
2021/12/20 01:39:38;;;;;;;12.03;8.00;;;;;;;;;;5071441;28;20217;-78
2021/12/20 01:42:06;;;;;;;10.40;7.53;;;;;;;;;;5071485;28;20261;-78
2021/12/20 01:44:35;;;;;;;12.37;8.30;;;;;;;;;;5071530;28;20290;-78
2021/12/20 01:47:03;;;;;;;12.33;8.37;;;;;;;;;;5070681;28;20231;-78
2021/12/20 01:49:37;;;;;;;13.57;8.97;;;;;;;;;;5071353;28;20297;-79
2021/12/20 01:52:11;;;;;;;12.77;8.27;;;;;;;;;;5071535;28;20561;-78
2021/12/20 01:54:40;;;;;;;12.20;8.43;;;;;;;;;;5071730;28;20212;-78
2021/12/20 01:57:07;;;;;;;13.43;8.80;;;;;;;;;;5071308;28;20340;-78
2021/12/20 01:59:34;;;;;;;12.67;8.33;;;;;;;;;;5071757;28;20193;-78
2021/12/20 02:02:02;;;;;;;11.97;8.20;;;;;;;;;;5090555;28;20696;-78
2021/12/20 02:04:31;;;;;;;11.20;7.13;;;;;;;;;;5091265;28;20247;-78
2021/12/20 02:06:59;;;;;;;12.03;7.90;;;;;;;;;;5090784;28;20202;-78
2021/12/20 02:09:26;;;;;;;12.30;7.77;;;;;;;;;;5091012;28;20651;-78
2021/12/20 02:11:55;;;;;;;14.03;8.33;;;;;;;;;;5073829;28;20230;-78
2021/12/20 02:14:22;;;;;;;13.30;8.83;;;;;;;;;;5088909;28;20994;-78
2021/12/20 02:16:49;;;;;;;12.53;8.00;;;;;;;;;;5090895;28;20283;-77
2021/12/20 02:19:18;;;;;;;13.67;8.27;;;;;;;;;;5091089;28;20286;-78
2021/12/20 02:21:46;;;;;;;12.80;8.40;;;;;;;;;;5091345;28;20228;-78
2021/12/20 02:24:14;;;;;;;12.60;8.00;;;;;;;;;;5091634;28;20329;-78
2021/12/20 02:26:41;;;;;;;13.03;8.80;;;;;;;;;;5082856;28;20286;-78
2021/12/20 02:29:09;;;;;;;13.10;7.80;;;;;;;;;;5079852;28;20318;-78
2021/12/20 02:37:27;;;;;;;12.37;7.67;;;;;;;;;;5091982;28;20199;-78
2021/12/20 02:39:54;;;;;;;11.93;8.07;;;;;;;;;;5054241;28;20912;-78
2021/12/20 02:42:27;;;;;;;12.43;8.40;;;;;;;;;;5089536;28;20282;-78
2021/12/20 02:45:07;;;;;;;11.27;7.60;;;;;;;;;;5091628;28;20283;-78
2021/12/20 02:47:37;;;;;;;12.73;7.67;;;;;;;;;;5094870;28;20697;-78
2021/12/20 02:50:05;;;;;;;12.63;8.23;;;;;;;;;;5094502;28;20757;-78
2021/12/20 02:52:33;;;;;;;12.27;8.00;;;;;;;;;;5084203;28;20232;-78
2021/12/20 02:55:00;;;;;;;12.03;7.57;;;;;;;;;;5081586;28;20320;-78
2021/12/20 02:57:28;;;;;;;12.40;7.80;;;;;;;;;;5084102;28;20309;-78
2021/12/20 02:59:55;;;;;;;12.97;7.80;;;;;;;;;;5069342;28;20240;-77
2021/12/20 03:02:23;;;;;;;12.43;7.80;;;;;;;;;;5076105;28;20232;-78
2021/12/20 03:04:50;;;;;;;12.20;8.07;;;;;;;;;;5085993;28;20682;-78
2021/12/20 03:07:22;;;;;;;12.13;7.80;;;;;;;;;;5083733;28;20629;-78
2021/12/20 03:09:56;;;;;;;11.77;8.03;;;;;;;;;;5074181;28;20201;-78
2021/12/20 03:12:26;;;;;;;12.53;7.83;;;;;;;;;;5081815;28;20196;-78
2021/12/20 03:14:57;;;;;;;12.37;8.00;;;;;;;;;;5074859;28;20293;-78
2021/12/20 03:17:24;;;;;;;14.03;7.90;;;;;;;;;;5075040;28;20202;-78
2021/12/20 03:19:52;;;;;;;11.70;7.53;;;;;;;;;;5092036;28;20281;-78
2021/12/20 03:22:20;;;;;;;11.47;7.17;;;;;;;;;;5093593;28;20251;-78
2021/12/20 03:24:48;;;;;;;12.77;7.90;;;;;;;;;;5093872;28;20761;-78
2021/12/20 03:27:17;;;;;;;12.07;7.30;;;;;;;;;;5093757;28;20713;-78
2021/12/20 03:29:44;;;;;;;12.17;7.70;;;;;;;;;;5093866;28;20322;-78
2021/12/20 03:32:11;;;;;;;12.13;7.67;;;;;;;;;;5093890;28;20298;-78
2021/12/20 03:34:39;;;;;;;10.90;7.23;;;;;;;;;;5085165;28;20230;-78
2021/12/20 03:37:06;;;;;;;11.33;6.80;;;;;;;;;;5093979;28;20286;-78
2021/12/20 03:39:33;;;;;;;10.90;7.03;;;;;;;;;;5076122;28;20207;-78
2021/12/20 03:42:00;;;;;;;12.27;6.90;;;;;;;;;;5073759;28;20320;-78
2021/12/20 03:44:32;;;;;;;11.20;7.23;;;;;;;;;;5080392;28;20225;-78
2021/12/20 03:46:59;;;;;;;12.33;7.37;;;;;;;;;;5092792;28;20693;-78
2021/12/20 03:49:27;;;;;;;11.13;7.60;;;;;;;;;;5090978;28;20227;-77
2021/12/20 03:51:54;;;;;;;12.13;7.83;;;;;;;;;;5092757;28;20226;-78
2021/12/20 03:54:21;;;;;;;12.47;7.67;;;;;;;;;;5093325;28;20202;-78
2021/12/20 03:56:49;;;;;;;12.53;7.43;;;;;;;;;;5077844;28;20310;-77
2021/12/20 03:59:16;;;;;;;11.43;7.47;;;;;;;;;;5073192;28;20592;-78
2021/12/20 04:01:44;;;;;;;11.23;7.00;;;;;;;;;;5093286;28;20227;-78
2021/12/20 04:04:12;;;;;;;11.90;7.90;;;;;;;;;;5087098;28;20755;-78
2021/12/20 04:06:39;;;;;;;12.37;7.73;;;;;;;;;;5088142;28;20237;-77
2021/12/20 04:09:07;;;;;;;11.07;6.90;;;;;;;;;;5092590;28;20245;-77
2021/12/20 04:11:34;;;;;;;11.10;7.20;;;;;;;;;;5083943;28;20279;-78
2021/12/20 04:14:01;;;;;;;13.00;7.67;;;;;;;;;;5072607;28;20747;-77
2021/12/20 04:16:29;;;;;;;12.23;7.50;;;;;;;;;;5072789;28;20211;-78
2021/12/20 04:18:58;;;;;;;11.77;7.57;;;;;;;;;;5072527;28;20295;-77
2021/12/20 04:21:25;;;;;;;12.23;8.00;;;;;;;;;;5072654;28;20704;-78
2021/12/20 04:23:52;;;;;;;11.73;7.70;;;;;;;;;;5080905;28;20286;-78
2021/12/20 04:26:19;;;;;;;11.53;7.10;;;;;;;;;;5072099;28;20235;-77
2021/12/20 04:28:47;;;;;;;12.27;8.20;;;;;;;;;;5072005;28;20238;-77
2021/12/20 04:31:14;;;;;;;13.50;8.63;;;;;;;;;;5072073;28;20199;-77
2021/12/20 04:33:41;;;;;;;12.03;7.80;;;;;;;;;;5078136;28;20289;-78
2021/12/20 04:36:10;;;;;;;12.20;8.37;;;;;;;;;;5092285;28;20221;-77
2021/12/20 04:38:38;;;;;;;12.70;8.47;;;;;;;;;;5081375;28;20292;-78
2021/12/20 04:41:05;;;;;;;12.77;7.53;;;;;;;;;;5071941;28;20318;-83
2021/12/20 04:43:32;;;;;;;11.13;7.43;;;;;;;;;;5087787;28;20254;-84
2021/12/20 04:45:59;;;;;;;11.07;7.63;;;;;;;;;;5098329;28;20298;-84
2021/12/20 04:48:26;;;;;;;10.43;7.23;;;;;;;;;;5092094;28;20191;-83
2021/12/20 04:50:54;;;;;;;11.40;7.40;;;;;;;;;;5090887;28;20286;-84
2021/12/20 04:53:23;;;;;;;12.43;7.80;;;;;;;;;;5079871;28;20238;-84
2021/12/20 04:55:50;;;;;;;11.47;7.23;;;;;;;;;;5092528;28;20238;-84
2021/12/20 04:58:17;;;;;;;12.20;7.70;;;;;;;;;;5078483;28;20207;-84
2021/12/20 05:00:45;;;;;;;11.30;7.40;;;;;;;;;;5075566;28;20285;-84
2021/12/20 05:03:12;;;;;;;11.30;7.87;;;;;;;;;;5090565;28;20198;-83
2021/12/20 05:05:39;;;;;;;11.87;8.07;;;;;;;;;;5091845;28;20202;-84
2021/12/20 05:08:06;;;;;;;11.97;7.53;;;;;;;;;;5091330;28;20229;-84
2021/12/20 05:10:38;;;;;;;13.83;8.87;;;;;;;;;;5077558;28;20242;-84
2021/12/20 05:13:06;;;;;;;12.40;8.33;;;;;;;;;;5072528;28;20208;-84
2021/12/20 05:15:34;;;;;;;12.47;8.17;;;;;;;;;;5071799;28;20231;-83
2021/12/20 05:18:01;;;;;;;14.30;8.77;;;;;;;;;;5071380;28;20191;-83
2021/12/20 05:20:29;;;;;;;13.90;8.57;;;;;;;;;;5076935;28;20231;-83
2021/12/20 05:22:56;;;;;;;14.00;8.73;;;;;;;;;;5076685;28;20298;-83
2021/12/20 05:25:24;;;;;;;15.47;9.10;;;;;;;;;;5072011;28;20944;-83
2021/12/20 05:27:52;;;;;;;17.43;9.90;;;;;;;;;;5071478;28;20287;-84
2021/12/20 05:30:20;;;;;;;14.83;9.83;;;;;;;;;;5071604;28;20262;-84
2021/12/20 05:32:48;;;;;;;14.70;9.00;;;;;;;;;;5072281;28;20285;-83
2021/12/20 05:35:16;;;;;;;15.60;10.53;;;;;;;;;;5091147;28;20194;-83
2021/12/20 05:37:43;;;;;;;17.00;10.33;;;;;;;;;;5087930;28;20289;-83
2021/12/20 05:40:12;;;;;;;16.70;10.30;;;;;;;;;;5071330;28;20233;-83
2021/12/20 05:42:39;;;;;;;17.10;10.53;;;;;;;;;;5071770;28;20314;-83
2021/12/20 05:45:08;;;;;;;17.87;10.97;;;;;;;;;;5091569;28;20223;-84
2021/12/20 05:47:36;;;;;;;16.60;10.23;;;;;;;;;;5080795;28;20199;-84
2021/12/20 05:50:04;;;;;;;18.60;11.73;;;;;;;;;;5072179;28;20286;-84
2021/12/20 05:52:32;;;;;;;18.00;11.47;;;;;;;;;;5070365;28;20205;-85
2021/12/20 05:54:59;;;;;;;20.00;12.40;;;;;;;;;;5078559;28;20199;-84
2021/12/20 05:57:26;;;;;;;18.83;11.50;;;;;;;;;;5073493;28;20261;-83
2021/12/20 05:59:53;;;;;;;17.40;11.43;;;;;;;;;;5085784;28;20229;-84
2021/12/20 06:02:22;;;;;;;17.73;10.83;;;;;;;;;;5073347;28;20306;-84
2021/12/20 06:04:50;;;;;;;20.77;11.93;;;;;;;;;;5080031;28;20287;-81
2021/12/20 06:07:18;;;;;;;18.57;11.37;;;;;;;;;;5095086;28;20750;-82
2021/12/20 06:09:46;;;;;;;19.10;11.13;;;;;;;;;;5095558;28;20222;-82
2021/12/20 06:12:13;;;;;;;20.07;12.20;;;;;;;;;;5095756;28;20220;-82
2021/12/20 06:14:40;;;;;;;19.43;11.83;;;;;;;;;;5095593;28;20284;-82
2021/12/20 06:17:07;;;;;;;20.03;12.37;;;;;;;;;;5092873;28;20294;-81
2021/12/20 06:19:36;;;;;;;20.13;12.00;;;;;;;;;;5074923;28;20239;-81
2021/12/20 06:22:04;;;;;;;20.47;12.23;;;;;;;;;;5075097;28;20703;-82
2021/12/20 06:24:32;;;;;;;22.07;13.00;;;;;;;;;;5075206;28;20201;-81
2021/12/20 06:26:59;;;;;;;19.33;12.23;;;;;;;;;;5079266;28;20294;-82
2021/12/20 06:29:26;;;;;;;85.03;47.90;;;;;;;;;;5089305;28;20264;-82
2021/12/20 06:31:53;;;;;;;38.03;22.53;;;;;;;;;;5095445;28;20301;-81
2021/12/20 06:34:21;;;;;;;31.73;17.97;;;;;;;;;;5094311;28;20233;-82
2021/12/20 06:36:49;;;;;;;49.27;41.00;;;;;;;;;;5084832;28;20214;-82
2021/12/20 06:39:17;;;;;;;29.87;21.30;;;;;;;;;;5079268;28;20308;-82
2021/12/20 06:41:44;;;;;;;29.13;19.33;;;;;;;;;;5080700;28;20603;-82
2021/12/20 06:44:12;;;;;;;24.00;14.73;;;;;;;;;;5083853;28;20285;-80
2021/12/20 06:46:41;;;;;;;30.73;22.33;;;;;;;;;;5087615;28;20195;-82
2021/12/20 06:49:09;;;;;;;22.93;13.77;;;;;;;;;;5076975;28;20199;-83
2021/12/20 06:51:39;;;;;;;22.43;13.97;;;;;;;;;;5074528;28;20207;-83
2021/12/20 06:54:08;;;;;;;24.20;13.93;;;;;;;;;;5074706;28;20236;-83
2021/12/20 06:56:36;;;;;;;23.93;14.70;;;;;;;;;;5076035;28;20260;-82
2021/12/20 06:59:04;;;;;;;26.53;18.87;;;;;;;;;;5081152;28;20286;-83
2021/12/20 07:01:31;;;;;;;23.63;13.73;;;;;;;;;;5082748;28;20329;-83
2021/12/20 07:04:01;;;;;;;21.90;12.60;;;;;;;;;;5074378;28;20635;-83
2021/12/20 07:06:28;;;;;;;22.50;12.53;;;;;;;;;;5074576;28;20211;-83
2021/12/20 07:08:55;;;;;;;23.57;14.10;;;;;;;;;;5074164;28;20279;-83
2021/12/20 07:11:24;;;;;;;22.10;12.60;;;;;;;;;;5074270;28;20286;-84
2021/12/20 07:13:53;;;;;;;22.83;13.37;;;;;;;;;;5074072;28;20202;-83
2021/12/20 07:16:21;;;;;;;23.33;13.47;;;;;;;;;;5074997;28;20214;-84
2021/12/20 07:18:48;;;;;;;23.73;14.03;;;;;;;;;;5079282;28;20694;-83
2021/12/20 07:21:15;;;;;;;24.17;13.93;;;;;;;;;;5074966;28;20227;-83
2021/12/20 07:23:42;;;;;;;25.53;14.97;;;;;;;;;;5095173;28;20295;-84
2021/12/20 07:26:12;;;;;;;27.47;14.73;;;;;;;;;;5079919;28;20275;-84
2021/12/20 07:28:41;;;;;;;25.90;15.00;;;;;;;;;;5074698;28;20230;-84
2021/12/20 07:31:08;;;;;;;24.23;14.67;;;;;;;;;;5078318;28;20219;-84
2021/12/20 07:33:36;;;;;;;27.67;15.23;;;;;;;;;;5078948;28;20222;-84
2021/12/20 07:36:03;;;;;;;27.10;15.90;;;;;;;;;;5074185;28;20320;-84
2021/12/20 07:38:30;;;;;;;25.43;14.50;;;;;;;;;;5073240;28;20211;-84
2021/12/20 07:40:57;;;;;;;24.43;14.03;;;;;;;;;;5073322;28;20972;-84
2021/12/20 07:43:25;;;;;;;25.57;14.40;;;;;;;;;;5073128;28;20256;-84
2021/12/20 07:45:54;;;;;;;29.77;15.57;;;;;;;;;;5074526;28;20203;-84
2021/12/20 07:48:22;;;;;;;25.83;15.70;;;;;;;;;;5075071;28;20204;-83
2021/12/20 07:50:51;;;;;;;26.90;15.60;;;;;;;;;;5090993;28;20290;-83
2021/12/20 07:53:18;;;;;;;27.70;14.90;;;;;;;;;;5073483;28;20226;-83
2021/12/20 07:55:46;;;;;;;26.87;15.23;;;;;;;;;;5076576;28;20768;-83
2021/12/20 07:58:13;;;;;;;28.80;15.77;;;;;;;;;;5073075;28;20282;-83
2021/12/20 08:00:40;;;;;;;33.40;21.63;;;;;;;;;;5072881;28;20230;-83
2021/12/20 08:03:09;;;;;;;34.20;20.30;;;;;;;;;;5076993;28;20306;-83
2021/12/20 08:05:37;;;;;;;28.30;15.67;;;;;;;;;;5079873;28;20304;-84
2021/12/20 08:08:04;;;;;;;28.23;16.73;;;;;;;;;;5073171;28;20287;-83
2021/12/20 08:10:32;;;;;;;28.37;16.57;;;;;;;;;;5071674;28;20207;-83
2021/12/20 08:12:59;;;;;;;28.00;17.07;;;;;;;;;;5073018;28;20205;-84
2021/12/20 08:15:27;;;;;;;27.23;15.90;;;;;;;;;;5073287;28;20286;-83
2021/12/20 08:17:56;;;;;;;28.70;16.83;;;;;;;;;;5072538;28;20570;-83
2021/12/20 08:20:25;;;;;;;29.03;17.10;;;;;;;;;;5079277;28;20282;-83
2021/12/20 08:22:52;;;;;;;28.87;16.83;;;;;;;;;;5083282;28;20798;-83
2021/12/20 08:25:20;;;;;;;30.17;16.10;;;;;;;;;;5072701;28;20289;-84
2021/12/20 08:27:48;;;;;;;28.40;15.93;;;;;;;;;;5072452;28;20223;-83
2021/12/20 08:30:15;;;;;;;26.83;15.13;;;;;;;;;;5072151;28;20705;-83
2021/12/20 08:32:42;;;;;;;25.40;14.83;;;;;;;;;;5076653;28;20195;-83
2021/12/20 08:35:11;;;;;;;29.43;15.83;;;;;;;;;;5084338;28;20317;-83
2021/12/20 08:37:40;;;;;;;27.87;15.37;;;;;;;;;;5084694;28;20237;-83
2021/12/20 08:40:10;;;;;;;30.53;16.77;;;;;;;;;;5071727;28;20290;-83
2021/12/20 08:42:37;;;;;;;26.73;14.70;;;;;;;;;;5071502;28;20254;-83
2021/12/20 08:45:05;;;;;;;28.77;16.50;;;;;;;;;;5071258;28;20227;-83
2021/12/20 08:47:32;;;;;;;25.17;14.67;;;;;;;;;;5071691;28;20246;-83
2021/12/20 08:50:00;;;;;;;29.03;16.90;;;;;;;;;;5071594;28;20203;-83
2021/12/20 08:52:27;;;;;;;30.53;16.90;;;;;;;;;;5072055;28;20571;-84
2021/12/20 08:54:56;;;;;;;28.80;16.77;;;;;;;;;;5085245;28;20678;-83
2021/12/20 08:57:23;;;;;;;29.77;16.67;;;;;;;;;;5082275;28;20673;-83
2021/12/20 08:59:50;;;;;;;27.60;15.40;;;;;;;;;;5071996;28;20297;-83
2021/12/20 09:02:18;;;;;;;28.17;15.60;;;;;;;;;;5071631;28;20737;-83
2021/12/20 09:04:45;;;;;;;29.97;16.97;;;;;;;;;;5072316;28;20231;-84
2021/12/20 09:07:16;;;;;;;29.83;16.63;;;;;;;;;;5072473;28;20288;-83
2021/12/20 09:09:44;;;;;;;27.53;16.73;;;;;;;;;;5076667;28;20759;-83
2021/12/20 09:12:12;;;;;;;29.30;17.40;;;;;;;;;;5077469;28;20627;-83
2021/12/20 09:14:40;;;;;;;28.60;17.07;;;;;;;;;;5072132;28;20286;-84
2021/12/20 09:17:07;;;;;;;29.20;17.63;;;;;;;;;;5073559;28;20252;-84
2021/12/20 09:19:36;;;;;;;30.17;18.13;;;;;;;;;;5071445;28;20286;-84
2021/12/20 09:22:05;;;;;;;29.90;17.93;;;;;;;;;;5072106;28;20205;-84
2021/12/20 09:24:33;;;;;;;28.50;18.00;;;;;;;;;;5071465;28;20562;-83
2021/12/20 09:27:00;;;;;;;32.27;19.00;;;;;;;;;;5071802;28;20203;-84
2021/12/20 09:29:28;;;;;;;28.53;17.87;;;;;;;;;;5071159;28;20709;-84
2021/12/20 09:31:56;;;;;;;31.17;18.10;;;;;;;;;;5069608;28;20278;-83
2021/12/20 09:34:23;;;;;;;30.77;19.20;;;;;;;;;;5084392;28;20282;-84
2021/12/20 09:36:52;;;;;;;30.43;18.30;;;;;;;;;;5071528;28;20239;-84
2021/12/20 09:39:20;;;;;;;33.37;18.13;;;;;;;;;;5071437;28;20314;-83
2021/12/20 09:44:36;;;;;;;30.07;18.37;;;;;;;;;;5075635;28;20230;-84
2021/12/20 09:47:04;;;;;;;30.07;19.00;;;;;;;;;;5087305;28;20281;-84
2021/12/20 09:49:31;;;;;;;32.30;19.57;;;;;;;;;;5090217;28;20199;-84
2021/12/20 09:51:59;;;;;;;30.80;19.27;;;;;;;;;;5087943;28;20670;-83
2021/12/20 09:54:27;;;;;;;31.43;18.97;;;;;;;;;;5071653;28;20204;-84
2021/12/20 09:56:55;;;;;;;32.33;20.60;;;;;;;;;;5071459;28;20305;-84
2021/12/20 09:59:24;;;;;;;31.77;19.57;;;;;;;;;;5071294;28;20659;-83
2021/12/20 10:01:53;;;;;;;31.30;19.20;;;;;;;;;;5084447;28;20206;-84
2021/12/20 10:04:22;;;;;;;32.33;19.60;;;;;;;;;;5091820;28;20225;-83
2021/12/20 10:06:52;;;;;;;29.90;18.77;;;;;;;;;;5091550;28;20186;-83
2021/12/20 10:09:25;;;;;;;38.40;22.50;;;;;;;;;;5091884;28;20200;-83
2021/12/20 10:12:10;;;;;;;79.77;41.00;;;;;;;;;;5089143;28;20203;-84
2021/12/20 10:14:52;;;;;;;33.33;20.80;;;;;;;;;;5092042;28;20218;-84
2021/12/20 10:17:21;;;;;;;28.87;19.27;;;;;;;;;;5082757;28;20234;-84
2021/12/20 10:19:49;;;;;;;31.30;22.37;;;;;;;;;;5071539;28;20286;-84
2021/12/20 10:22:23;;;;;;;40.83;26.10;;;;;;;;;;5088614;28;20198;-84
2021/12/20 10:24:50;;;;;;;30.30;20.23;;;;;;;;;;5074959;28;20292;-83
2021/12/20 10:27:29;;;;;;;45.97;29.47;;;;;;;;;;5082704;28;20286;-84
2021/12/20 10:29:56;;;;;;;47.10;29.63;;;;;;;;;;5074462;28;20239;-83
2021/12/20 10:35:32;;;;;;;29.13;18.33;;;;;;;;;;5150548;27;20531;-84
2021/12/20 10:38:00;;;;;;;30.60;19.23;;;;;;;;;;5135626;27;20604;-84
2021/12/20 10:40:27;;;;;;;30.50;19.13;;;;;;;;;;5137802;27;20285;-83
2021/12/20 10:42:56;;;;;;;28.83;18.30;;;;;;;;;;5130089;27;20689;-82
2021/12/20 10:45:24;;;;;;;27.43;17.60;;;;;;;;;;5130066;28;20189;-83
2021/12/20 10:47:51;;;;;;;31.23;19.57;;;;;;;;;;5130380;27;20219;-83
2021/12/20 10:50:23;;;;;;;27.90;16.17;;;;;;;;;;5140131;27;20285;-83
2021/12/20 10:52:52;;;;;;;29.87;19.27;;;;;;;;;;5136780;27;20651;-83
2021/12/20 10:55:38;;;;;;;29.83;18.83;;;;;;;;;;5129732;27;20276;-82
2021/12/20 10:58:18;;;;;;;28.40;17.63;;;;;;;;;;5110287;28;20285;-82
2021/12/20 11:00:46;;;;;;;30.17;18.00;;;;;;;;;;5119937;28;20221;-82
2021/12/20 11:03:24;;;;;;;31.57;18.90;;;;;;;;;;5117661;28;20278;-83
2021/12/20 11:06:25;;;;;;;31.13;20.03;;;;;;;;;;5111812;28;20247;-83
2021/12/20 11:09:05;;;;;;;26.80;15.50;;;;;;;;;;5107667;28;20193;-83
2021/12/20 11:11:32;;;;;;;28.70;17.60;;;;;;;;;;5127603;28;20317;-82
2021/12/20 11:13:59;;;;;;;29.93;19.10;;;;;;;;;;5120517;28;20704;-83
2021/12/20 11:16:28;;;;;;;28.50;17.57;;;;;;;;;;5127379;28;20292;-83
2021/12/20 11:19:15;;;;;;;30.13;18.83;;;;;;;;;;5113915;28;20204;-83
2021/12/20 11:21:47;;;;;;;31.73;19.77;;;;;;;;;;5115203;28;20223;-83
2021/12/20 11:24:16;;;;;;;31.33;18.70;;;;;;;;;;5127296;28;20277;-83
2021/12/20 11:26:43;;;;;;;32.27;19.97;;;;;;;;;;5126135;28;20281;-83
2021/12/20 11:29:11;;;;;;;33.40;19.93;;;;;;;;;;5125514;28;20216;-83
2021/12/20 11:31:38;;;;;;;32.50;19.57;;;;;;;;;;5118605;28;20220;-83
2021/12/20 11:34:05;;;;;;;32.23;20.10;;;;;;;;;;5116626;28;20247;-83
2021/12/20 11:36:33;;;;;;;32.07;18.87;;;;;;;;;;5125105;28;20245;-83
2021/12/20 11:39:00;;;;;;;33.50;21.23;;;;;;;;;;5128505;28;20263;-84
2021/12/20 11:47:00;;;;;;;34.33;20.33;;;;;;;;;;5105164;28;20572;-84
2021/12/20 11:49:27;;;;;;;32.67;19.90;;;;;;;;;;5099161;28;20290;-83
2021/12/20 11:52:15;;;;;;;33.67;20.63;;;;;;;;;;5094677;28;20289;-83
2021/12/20 11:54:47;;;;;;;33.77;19.83;;;;;;;;;;5098380;28;20219;-83
2021/12/20 11:57:33;;;;;;;30.73;17.33;;;;;;;;;;5117099;28;20297;-84
2021/12/20 12:00:04;;;;;;;32.97;20.77;;;;;;;;;;5097468;28;20724;-83
2021/12/20 12:02:33;;;;;;;32.53;20.33;;;;;;;;;;5094553;28;20201;-83
2021/12/20 12:05:01;;;;;;;31.23;19.60;;;;;;;;;;5104116;28;20284;-83
2021/12/20 12:07:30;;;;;;;32.03;19.73;;;;;;;;;;5109758;28;20218;-83
2021/12/20 12:09:58;;;;;;;31.77;19.30;;;;;;;;;;5113093;28;20384;-83
2021/12/20 12:12:26;;;;;;;32.20;19.43;;;;;;;;;;5102016;28;20231;-83
2021/12/20 12:15:06;;;;;;;29.23;18.33;;;;;;;;;;5094590;28;20290;-83
2021/12/20 12:17:51;;;;;;;32.73;20.07;;;;;;;;;;5086724;28;20199;-83
2021/12/20 12:20:44;;;;;;;30.90;20.07;;;;;;;;;;5094900;28;20282;-83
2021/12/20 12:23:15;;;;;;;30.83;19.30;;;;;;;;;;5057119;28;20205;-83
2021/12/20 12:25:44;;;;;;;33.80;19.67;;;;;;;;;;5108799;28;20288;-83
2021/12/20 12:28:12;;;;;;;31.80;19.67;;;;;;;;;;5102124;28;20198;-83
2021/12/20 12:30:42;;;;;;;31.40;20.30;;;;;;;;;;5110219;28;20195;-83
2021/12/20 12:33:27;;;;;;;29.90;19.77;;;;;;;;;;5109870;28;20326;-82
2021/12/20 12:35:56;;;;;;;29.83;17.47;;;;;;;;;;5086346;28;20201;-83
2021/12/20 12:38:25;;;;;;;31.60;20.23;;;;;;;;;;5114294;28;20679;-83
2021/12/20 12:40:53;;;;;;;31.40;19.13;;;;;;;;;;5110285;28;20193;-83
2021/12/20 12:43:26;;;;;;;27.53;17.90;;;;;;;;;;5093705;28;20292;-83
2021/12/20 12:45:55;;;;;;;30.50;17.70;;;;;;;;;;5105687;28;20196;-83
2021/12/20 12:48:36;;;;;;;44.47;29.33;;;;;;;;;;5106202;28;20193;-83
2021/12/20 12:51:07;;;;;;;30.97;19.47;;;;;;;;;;5093965;28;20676;-82
2021/12/20 12:53:42;;;;;;;90.77;57.17;;;;;;;;;;5093365;28;20282;-83
2021/12/20 12:56:35;;;;;;;37.27;24.77;;;;;;;;;;5102008;28;20296;-83
2021/12/20 12:59:22;;;;;;;28.13;17.97;;;;;;;;;;5105818;27;20202;-83
2021/12/20 13:01:52;;;;;;;28.70;17.63;;;;;;;;;;5120411;28;20721;-83
2021/12/20 13:04:19;;;;;;;28.87;18.67;;;;;;;;;;5114689;28;20288;-83
2021/12/20 13:06:47;;;;;;;27.97;18.23;;;;;;;;;;5112954;28;20635;-82
2021/12/20 13:09:14;;;;;;;27.53;16.90;;;;;;;;;;5114414;28;20287;-83
2021/12/20 13:11:41;;;;;;;26.07;17.80;;;;;;;;;;5113881;28;20196;-83
2021/12/20 13:14:12;;;;;;;46.03;31.00;;;;;;;;;;5108303;28;20313;-84
2021/12/20 13:17:01;;;;;;;29.13;19.53;;;;;;;;;;5109288;28;20286;-83
2021/12/20 13:19:29;;;;;;;28.27;18.37;;;;;;;;;;5097680;27;20214;-83
2021/12/20 13:21:57;;;;;;;27.93;18.33;;;;;;;;;;5093300;28;20212;-83
2021/12/20 13:24:24;;;;;;;27.77;18.43;;;;;;;;;;5093316;28;20202;-83
2021/12/20 13:26:52;;;;;;;27.30;17.60;;;;;;;;;;5093560;28;20204;-83
2021/12/20 13:29:19;;;;;;;40.30;27.70;;;;;;;;;;5093336;28;20290;-83
2021/12/20 13:31:46;;;;;;;41.93;28.50;;;;;;;;;;5096957;28;20236;-83
2021/12/20 13:34:15;;;;;;;27.90;19.33;;;;;;;;;;5097935;28;20743;-83
2021/12/20 13:36:50;;;;;;;40.03;26.87;;;;;;;;;;5113532;28;20205;-83
2021/12/20 13:39:18;;;;;;;27.87;18.67;;;;;;;;;;5113773;28;20263;-84
2021/12/20 13:41:45;;;;;;;33.37;23.33;;;;;;;;;;5105546;28;20207;-84
2021/12/20 13:44:15;;;;;;;35.00;24.20;;;;;;;;;;5092980;28;20334;-84
2021/12/20 13:46:44;;;;;;;33.03;21.50;;;;;;;;;;5093015;28;20607;-84
2021/12/20 13:49:12;;;;;;;29.43;19.63;;;;;;;;;;5093128;28;20536;-85
2021/12/20 13:51:42;;;;;;;36.17;24.40;;;;;;;;;;5093241;28;20295;-85
2021/12/20 13:54:23;;;;;;;31.93;20.93;;;;;;;;;;5093017;28;20248;-84
2021/12/20 13:56:52;;;;;;;29.40;19.73;;;;;;;;;;5093093;28;20313;-84
2021/12/20 13:59:23;;;;;;;29.73;20.30;;;;;;;;;;5093606;28;20187;-84
2021/12/20 14:01:50;;;;;;;34.57;23.57;;;;;;;;;;5096336;28;20265;-81
2021/12/20 14:04:26;;;;;;;31.00;20.30;;;;;;;;;;5101077;28;20197;-82
2021/12/20 14:06:57;;;;;;;30.97;20.80;;;;;;;;;;5105217;28;20740;-81
2021/12/20 14:09:34;;;;;;;30.33;19.57;;;;;;;;;;5092224;28;20193;-81
2021/12/20 14:12:12;;;;;;;31.27;20.33;;;;;;;;;;5092397;28;20225;-82
2021/12/20 14:14:54;;;;;;;30.90;20.20;;;;;;;;;;5092733;28;20236;-84
2021/12/20 14:17:21;;;;;;;31.27;19.13;;;;;;;;;;5092534;28;20288;-84
2021/12/20 14:20:13;;;;;;;32.00;20.30;;;;;;;;;;5092369;28;20266;-84
2021/12/20 14:22:59;;;;;;;38.20;23.53;;;;;;;;;;5082088;28;20294;-82
2021/12/20 14:25:34;;;;;;;37.57;21.20;;;;;;;;;;5092186;28;20205;-84
2021/12/20 14:28:06;;;;;;;33.63;20.53;;;;;;;;;;5092641;28;20201;-84
2021/12/20 14:30:33;;;;;;;58.73;32.70;;;;;;;;;;5094608;28;20229;-84
2021/12/20 14:33:00;;;;;;;34.33;22.13;;;;;;;;;;5096960;28;20675;-84
2021/12/20 14:35:31;;;;;;;44.07;25.87;;;;;;;;;;5092019;28;20260;-82
2021/12/20 14:38:00;;;;;;;32.97;20.00;;;;;;;;;;5092724;28;20255;-84
2021/12/20 14:40:39;;;;;;;34.17;21.33;;;;;;;;;;5092115;28;20232;-82
2021/12/20 14:43:07;;;;;;;40.43;23.47;;;;;;;;;;5092607;28;20257;-83
2021/12/20 14:45:34;;;;;;;150.37;68.50;;;;;;;;;;5092106;28;20206;-82
2021/12/20 14:48:19;;;;;;;52.03;29.47;;;;;;;;;;5092364;28;20592;-82
2021/12/20 14:50:48;;;;;;;39.70;22.70;;;;;;;;;;5092153;28;20187;-83
2021/12/20 14:53:17;;;;;;;60.17;30.30;;;;;;;;;;5092635;28;20292;-83